»·PEaware :: UAL576 KCOS-KLAS

UAL576 :: KCOS-KLAS

FLIGHT INFORMATION

Flight Status: Arrived
Operator:
United Airlines
More flights by this operator :: More flights under this callsign
Pilot: Anonymous 8274 (8274)
Aircraft: BOEING 737-200
(B732)
More flights by this aircraft type
Origin: KCOS City Of Colorado Springs Mun
United States
Destination: KLAS McCarran Intl
United States
More flights between these airports :: More routes between these airports
Route: + COS6 BRK HBU J146 FREDD J11 CORKR J76 CUNDY PGS KADDY2
File this flight plan on PilotEdge
Remarks: Windy scenic southerly diversion over the canyon intentionaL
Altitude:
(Current/Filed)
28,000ft
Speed:
(Current/Filed)
470kts
Departed: 05-Oct-18 08:35 PM
Arrived: 05-Oct-18 10:13 PM
Distance/Time
Traveled:
523nm/1:37
Distance/Time
To Go:
Arrived

Flight Plot

Page will automatically refresh every two minutes.

Flight plan parsing failed; only flown route is shown


Map Options




Map Legend


Flown Route
Filed Route
Departure Airport
Arrival Airport
Navaid (VOR, NDB)
Fix

Horizontal Profiles

Position Reports

Time Latitude Longitude Heading Altitude Ground
Speed
05-Oct-18 20:08 38.798635 -104.698342 89 6103ft 0kts
05-Oct-18 20:09 38.798635 -104.698342 89 6103ft 0kts
05-Oct-18 20:10 38.798635 -104.698342 89 6103ft 0kts
05-Oct-18 20:11 38.798635 -104.698342 89 6103ft 0kts
05-Oct-18 20:12 38.798635 -104.698342 89 6103ft 0kts
05-Oct-18 20:13 38.798635 -104.698342 89 6103ft 0kts
05-Oct-18 20:14 38.798635 -104.698342 89 6103ft 0kts
05-Oct-18 20:15 38.798635 -104.698342 89 6103ft 0kts
05-Oct-18 20:16 38.798635 -104.698342 89 6103ft 0kts
05-Oct-18 20:17 38.798635 -104.698342 89 6103ft 0kts
05-Oct-18 20:18 38.798635 -104.698342 89 6103ft 0kts
05-Oct-18 20:19 38.798635 -104.698342 89 6103ft 0kts
05-Oct-18 20:20 38.798635 -104.698342 89 6103ft 0kts
05-Oct-18 20:21 38.798635 -104.698343 89 6103ft 0kts
05-Oct-18 20:22 38.798634 -104.698667 90 6103ft 2kts
05-Oct-18 20:23 38.798618 -104.699360 58 6103ft 2kts
05-Oct-18 20:24 38.798376 -104.699497 359 6103ft 0kts
05-Oct-18 20:25 38.798377 -104.699497 359 6103ft 0kts
05-Oct-18 20:26 38.798379 -104.699497 359 6103ft 0kts
05-Oct-18 20:27 38.800090 -104.699270 45 6103ft 8kts
05-Oct-18 20:28 38.802496 -104.697317 359 6103ft 15kts
05-Oct-18 20:29 38.803168 -104.691493 89 6103ft 24kts
05-Oct-18 20:30 38.800381 -104.687676 180 6103ft 19kts
05-Oct-18 20:31 38.793809 -104.687681 179 6103ft 27kts
05-Oct-18 20:32 38.783776 -104.687681 179 6103ft 39kts
05-Oct-18 20:33 38.779157 -104.686976 89 6103ft 2kts
05-Oct-18 20:34 38.779157 -104.686975 89 6103ft 0kts
05-Oct-18 20:35 38.779157 -104.686975 89 6103ft 0kts
05-Oct-18 20:36 38.779440 -104.685789 351 6103ft 4kts
05-Oct-18 20:37 38.780489 -104.685791 0 6103ft 41kts
05-Oct-18 20:38 38.812969 -104.685528 2 6861ft 146kts
05-Oct-18 20:39 38.858419 -104.683573 0 7982ft 199kts
05-Oct-18 20:40 38.919318 -104.681433 0 9906ft 237kts
05-Oct-18 20:41 38.978256 -104.713811 290 11670ft 282kts
05-Oct-18 20:42 38.983433 -104.817879 277 13674ft 305kts
05-Oct-18 20:43 38.961231 -104.927940 246 14930ft 351kts
05-Oct-18 20:44 38.918706 -105.040704 246 16570ft 365kts
05-Oct-18 20:45 38.874370 -105.158798 247 18217ft 373kts
05-Oct-18 20:46 38.838035 -105.282583 255 19708ft 376kts
05-Oct-18 20:47 38.818041 -105.414800 260 20952ft 385kts
05-Oct-18 20:48 38.798088 -105.554117 260 21599ft 409kts
05-Oct-18 20:49 38.782147 -105.693219 259 22838ft 410kts
05-Oct-18 20:50 38.768646 -105.835701 255 24316ft 397kts
05-Oct-18 20:51 38.733576 -105.966088 246 25541ft 385kts
05-Oct-18 20:52 38.694633 -106.091822 245 26191ft 389kts
05-Oct-18 20:53 38.654722 -106.209420 245 26741ft 393kts
05-Oct-18 20:54 38.614703 -106.337765 246 27210ft 398kts
05-Oct-18 20:55 38.580202 -106.471974 252 27724ft 402kts
05-Oct-18 20:56 38.555372 -106.611195 257 28166ft 406kts
05-Oct-18 20:57 38.532863 -106.747414 251 28187ft 415kts
05-Oct-18 20:58 38.496109 -106.885208 248 28183ft 412kts
05-Oct-18 20:59 38.458916 -107.019913 248 28182ft 411kts
05-Oct-18 21:00 38.412284 -107.150690 244 28180ft 408kts
05-Oct-18 21:01 38.367207 -107.282645 246 28182ft 412kts
05-Oct-18 21:02 38.325320 -107.418590 247 28180ft 416kts
05-Oct-18 21:03 38.279784 -107.553514 245 28154ft 418kts
05-Oct-18 21:04 38.235841 -107.682726 244 28157ft 420kts
05-Oct-18 21:05 38.190112 -107.817209 245 28162ft 421kts
05-Oct-18 21:06 38.144170 -107.952570 245 28235ft 421kts
05-Oct-18 21:07 38.097920 -108.089075 245 28235ft 422kts
05-Oct-18 21:08 38.051833 -108.225331 245 28228ft 424kts
05-Oct-18 21:09 38.005533 -108.362427 245 28153ft 426kts
05-Oct-18 21:10 37.959172 -108.499954 245 28152ft 426kts
05-Oct-18 21:11 37.912867 -108.637578 245 28151ft 426kts
05-Oct-18 21:12 37.877313 -108.741077 243 28159ft 426kts
05-Oct-18 21:13 37.827440 -108.875684 243 28158ft 427kts
05-Oct-18 21:14 37.781480 -109.012973 253 28132ft 430kts
05-Oct-18 21:15 37.751382 -109.159099 253 28157ft 430kts
05-Oct-18 21:16 37.721563 -109.304661 253 28156ft 431kts
05-Oct-18 21:17 37.691686 -109.450833 254 28156ft 431kts
05-Oct-18 21:18 37.655908 -109.593464 250 28155ft 430kts
05-Oct-18 21:19 37.620777 -109.725407 249 28158ft 430kts
05-Oct-18 21:20 37.583149 -109.866949 249 28157ft 431kts
05-Oct-18 21:21 37.545896 -110.007424 250 28156ft 431kts
05-Oct-18 21:22 37.508257 -110.148440 250 28157ft 431kts
05-Oct-18 21:23 37.467556 -110.288488 250 28155ft 430kts
05-Oct-18 21:24 37.425824 -110.428995 250 28154ft 430kts
05-Oct-18 21:25 37.384207 -110.568646 250 28126ft 431kts
05-Oct-18 21:26 37.345115 -110.702858 252 28025ft 432kts
05-Oct-18 21:27 37.307766 -110.844267 252 28021ft 432kts
05-Oct-18 21:28 37.271691 -110.987979 254 28013ft 432kts
05-Oct-18 21:29 37.240107 -111.133212 254 28021ft 433kts
05-Oct-18 21:30 37.208705 -111.279278 254 28020ft 435kts
05-Oct-18 21:31 37.177366 -111.425225 254 28020ft 436kts
05-Oct-18 21:32 37.145852 -111.572263 254 28019ft 436kts
05-Oct-18 21:33 37.115810 -111.711507 252 28020ft 437kts
05-Oct-18 21:34 37.080382 -111.856414 252 28021ft 437kts
05-Oct-18 21:35 37.044765 -112.001250 252 28018ft 437kts
05-Oct-18 21:36 37.008529 -112.145190 252 28161ft 434kts
05-Oct-18 21:37 36.963231 -112.285530 247 28085ft 440kts
05-Oct-18 21:38 36.902841 -112.417736 221 28080ft 451kts
05-Oct-18 21:39 36.802226 -112.442728 164 28077ft 461kts
05-Oct-18 21:40 36.682145 -112.390268 160 28074ft 464kts
05-Oct-18 21:41 36.555610 -112.370840 178 28106ft 463kts
05-Oct-18 21:42 36.427401 -112.366463 180 28129ft 465kts
05-Oct-18 21:43 36.298743 -112.365612 180 28130ft 466kts
05-Oct-18 21:44 36.168906 -112.364743 180 28130ft 468kts
05-Oct-18 21:45 36.047535 -112.401929 225 28134ft 457kts
05-Oct-18 21:46 36.008880 -112.542461 266 28129ft 440kts
05-Oct-18 21:47 36.016696 -112.683046 280 28127ft 435kts
05-Oct-18 21:48 36.043483 -112.827588 284 28131ft 433kts
05-Oct-18 21:49 36.020768 -112.958467 227 26526ft 413kts
05-Oct-18 21:50 35.940907 -113.056062 230 24190ft 398kts
05-Oct-18 21:51 35.877445 -113.152939 234 24019ft 392kts
05-Oct-18 21:52 35.813161 -113.259486 238 24021ft 392kts
05-Oct-18 21:53 35.747158 -113.367686 231 24019ft 401kts
05-Oct-18 21:54 35.673105 -113.471214 233 24019ft 403kts
05-Oct-18 21:55 35.633220 -113.570420 265 24035ft 392kts
05-Oct-18 21:56 35.647164 -113.714474 282 24019ft 381kts
05-Oct-18 21:57 35.666127 -113.842434 278 24024ft 383kts
05-Oct-18 21:58 35.680660 -113.971333 280 22810ft 377kts
05-Oct-18 21:59 35.695236 -114.075469 281 20895ft 367kts
05-Oct-18 22:00 35.715488 -114.216284 281 18309ft 352kts
05-Oct-18 22:01 35.729779 -114.313792 281 16453ft 344kts
05-Oct-18 22:02 35.746328 -114.426664 285 14355ft 333kts
05-Oct-18 22:03 35.814151 -114.491663 337 12280ft 324kts
05-Oct-18 22:04 35.904380 -114.534434 337 12002ft 287kts
05-Oct-18 22:05 35.966247 -114.563644 337 12001ft 287kts
05-Oct-18 22:06 36.040457 -114.598630 337 12001ft 286kts
05-Oct-18 22:07 36.112054 -114.632327 337 12003ft 286kts
05-Oct-18 22:08 36.176229 -114.676366 297 11978ft 281kts
05-Oct-18 22:09 36.158943 -114.765786 241 10364ft 282kts
05-Oct-18 22:10 36.122472 -114.849544 241 7528ft 279kts
05-Oct-18 22:11 36.087570 -114.933635 241 4727ft 274kts
05-Oct-18 22:12 36.073950 -115.020887 269 3858ft 234kts
05-Oct-18 22:13 36.073763 -115.087140 269 2791ft 149kts
05-Oct-18 22:14 36.073640 -115.135823 270 2120ft 122kts
05-Oct-18 22:15 36.076687 -115.152175 333 2120ft 30kts
05-Oct-18 22:16 36.077955 -115.149869 95 2120ft 12kts
05-Oct-18 22:17 36.077509 -115.142894 94 2120ft 23kts

Navigation Log

Ident Type
Flight plan parsing failed, navigation log unavailable